createdAt,value
2019-02-25T00:00:37.371Z,53.19
2019-02-25T00:01:37.356Z,51.54
2019-02-25T00:02:37.347Z,50.92
2019-02-25T00:03:37.336Z,50.61
2019-02-25T00:04:37.328Z,51.64
2019-02-25T00:05:37.321Z,51.44
2019-02-25T00:06:37.308Z,49.26
2019-02-25T00:07:37.299Z,49.36
2019-02-25T00:08:37.283Z,47.05
2019-02-25T00:09:37.273Z,47.68
2019-02-25T00:10:37.262Z,48.32
2019-02-25T00:11:37.249Z,47.60
2019-02-25T00:12:37.243Z,47.60
2019-02-25T00:13:37.228Z,46.87
2019-02-25T00:14:37.217Z,46.77
2019-02-25T00:15:37.209Z,47.57
2019-02-25T00:16:37.193Z,47.60
2019-02-25T00:17:37.185Z,47.80
2019-02-25T00:18:37.175Z,47.39
2019-02-25T00:19:37.163Z,49.46
2019-02-25T00:20:37.154Z,50.68
2019-02-25T00:21:37.143Z,51.20
2019-02-25T00:22:37.130Z,50.56
2019-02-25T00:23:37.118Z,50.76
2019-02-25T00:24:37.110Z,49.50
2019-02-25T00:25:37.097Z,49.60
2019-02-25T00:26:37.083Z,47.84
2019-02-25T00:27:37.071Z,46.29
2019-02-25T00:28:37.064Z,47.84
2019-02-25T00:29:37.052Z,47.30
2019-02-25T00:30:37.050Z,46.47
2019-02-25T00:31:37.042Z,45.64
2019-02-25T00:32:37.028Z,47.43
2019-02-25T00:33:37.009Z,47.43
2019-02-25T00:34:36.998Z,48.67
2019-02-25T00:35:36.987Z,47.84
2019-02-25T00:36:36.976Z,47.63
2019-02-25T00:37:36.968Z,46.52
2019-02-25T00:38:36.953Z,50.43
2019-02-25T00:39:36.946Z,46.10
2019-02-25T00:40:36.936Z,45.58
2019-02-25T00:41:36.924Z,43.93
2019-02-25T00:43:36.900Z,47.55
2019-02-25T00:44:36.890Z,45.89
2019-02-25T00:46:36.871Z,51.36
2019-02-25T00:47:36.856Z,45.62
2019-02-25T00:48:36.847Z,44.07
2019-02-25T00:49:36.936Z,45.81
2019-02-25T00:50:36.821Z,50.00
2019-02-25T00:51:36.814Z,45.75
2019-02-25T00:52:36.800Z,45.31
2019-02-25T00:53:36.791Z,44.78
2019-02-25T00:57:36.747Z,40.50
2019-02-25T01:01:36.706Z,40.57
2019-02-25T01:06:36.646Z,38.92
2019-02-25T01:14:36.560Z,40.01
2019-02-25T01:15:36.551Z,41.16
2019-02-25T01:17:36.530Z,41.27
2019-02-25T01:18:36.516Z,41.70
2019-02-25T01:19:36.505Z,43.29
2019-02-25T01:20:36.496Z,42.55
2019-02-25T01:21:36.486Z,41.69
2019-02-25T01:22:36.475Z,41.25
2019-02-25T01:23:36.466Z,41.36
2019-02-25T01:24:36.449Z,40.64
2019-02-25T01:25:36.438Z,42.98
2019-02-25T01:26:36.429Z,41.92
2019-02-25T01:27:36.419Z,40.55
2019-02-25T01:28:36.412Z,45.55
2019-02-25T01:29:36.396Z,44.87
2019-02-25T01:30:36.395Z,37.99
2019-02-25T01:31:36.377Z,39.41
2019-02-25T01:32:36.366Z,38.81
2019-02-25T01:33:36.351Z,42.95
2019-02-25T01:34:36.343Z,40.35
2019-02-25T01:35:36.431Z,36.64
2019-02-25T01:36:36.320Z,36.49
2019-02-25T01:37:36.310Z,36.73
2019-02-25T01:38:36.298Z,38.12
2019-02-25T01:39:36.289Z,43.28
2019-02-25T01:40:36.280Z,40.57
2019-02-25T01:41:36.269Z,39.35
2019-02-25T01:42:36.254Z,39.16
2019-02-25T01:43:36.245Z,45.33
2019-02-25T01:44:36.233Z,37.36
2019-02-25T01:45:36.230Z,37.46
2019-02-25T01:46:36.212Z,39.86
2019-02-25T01:47:37.313Z,37.48
2019-02-25T01:48:36.187Z,42.12
2019-02-25T01:49:36.179Z,37.81
2019-02-25T01:50:36.269Z,39.40
2019-02-25T01:51:36.156Z,39.83
2019-02-25T01:52:36.142Z,37.06
2019-02-25T01:53:36.134Z,36.15
2019-02-25T01:54:36.123Z,36.88
2019-02-25T01:55:36.112Z,45.33
2019-02-25T01:56:36.104Z,40.66
2019-02-25T01:57:36.094Z,42.78
2019-02-25T01:58:36.079Z,39.17
2019-02-25T01:59:36.073Z,37.43
2019-02-25T02:00:36.059Z,36.85
2019-02-25T02:01:36.046Z,37.17
2019-02-25T02:02:36.034Z,39.76
2019-02-25T02:03:36.026Z,39.95
2019-02-25T02:04:36.013Z,41.77
2019-02-25T02:05:36.004Z,40.11
2019-02-25T02:06:35.996Z,37.65
2019-02-25T02:07:35.984Z,37.24
2019-02-25T02:08:35.971Z,41.04
2019-02-25T02:09:35.960Z,44.92
2019-02-25T02:10:35.947Z,43.23
2019-02-25T02:11:35.938Z,43.73
2019-02-25T02:12:35.930Z,43.42
2019-02-25T02:13:35.915Z,41.91
2019-02-25T02:14:35.904Z,39.04
2019-02-25T02:15:35.896Z,38.63
2019-02-25T02:16:35.883Z,36.08
2019-02-25T02:17:35.876Z,36.79
2019-02-25T02:18:35.857Z,38.33
2019-02-25T02:19:35.852Z,35.38
2019-02-25T02:20:35.838Z,34.72
2019-02-25T02:21:35.832Z,35.98
2019-02-25T02:22:35.815Z,41.41
2019-02-25T02:23:35.804Z,41.72
2019-02-25T02:24:35.794Z,36.30
2019-02-25T02:25:35.783Z,37.94
2019-02-25T02:26:35.775Z,36.44
2019-02-25T02:27:35.759Z,42.91
2019-02-25T02:28:35.753Z,37.15
2019-02-25T02:29:35.741Z,38.59
2019-02-25T02:30:35.730Z,36.74
2019-02-25T02:31:35.720Z,36.42
2019-02-25T02:32:35.715Z,41.62
2019-02-25T02:33:35.695Z,38.90
2019-02-25T02:34:35.687Z,40.49
2019-02-25T02:35:35.675Z,36.57
2019-02-25T02:36:35.663Z,36.74
2019-02-25T02:37:35.654Z,35.00
2019-02-25T02:38:35.660Z,32.84
2019-02-25T02:39:35.645Z,33.76
2019-02-25T02:40:35.716Z,36.37
2019-02-25T02:41:35.613Z,33.61
2019-02-25T02:42:35.600Z,29.97
2019-02-25T02:43:35.592Z,33.22
2019-02-25T02:44:35.578Z,31.10
2019-02-25T02:45:35.579Z,34.68
2019-02-25T02:46:35.560Z,35.40
2019-02-25T02:47:35.552Z,33.78
2019-02-25T02:48:35.538Z,35.00
2019-02-25T02:49:35.526Z,36.10
2019-02-25T02:50:35.523Z,36.10
2019-02-25T02:51:35.861Z,34.98
2019-02-25T02:52:35.494Z,34.47
2019-02-25T02:53:35.490Z,36.59
2019-02-25T02:54:35.475Z,36.37
2019-02-25T02:55:35.467Z,35.85
2019-02-25T02:56:35.449Z,33.20
2019-02-25T02:57:35.540Z,36.15
2019-02-25T02:58:35.430Z,36.44
2019-02-25T02:59:35.521Z,34.71
2019-02-25T03:00:35.406Z,34.41
2019-02-25T03:01:35.396Z,36.22
2019-02-25T03:02:35.385Z,34.49
2019-02-25T03:03:35.375Z,32.28
2019-02-25T03:04:35.360Z,34.71
2019-02-25T03:05:35.354Z,32.98
2019-02-25T03:06:35.341Z,31.87
2019-02-25T03:07:35.330Z,32.90
2019-02-25T03:08:35.320Z,28.15
2019-02-25T03:09:35.322Z,32.18
2019-02-25T03:10:35.300Z,31.51
2019-02-25T03:11:35.288Z,31.14
2019-02-25T03:12:35.275Z,33.12
2019-02-25T03:13:35.264Z,33.05
2019-02-25T03:14:35.256Z,34.63
2019-02-25T03:15:35.245Z,35.35
2019-02-25T03:16:35.231Z,39.12
2019-02-25T03:17:35.221Z,38.94
2019-02-25T03:18:35.213Z,37.75
2019-02-25T03:19:35.199Z,35.99
2019-02-25T03:20:35.188Z,37.29
2019-02-25T03:21:35.177Z,36.71
2019-02-25T03:22:35.166Z,36.77
2019-02-25T03:23:35.177Z,34.73
2019-02-25T03:25:03.027Z,35.29
2019-02-25T03:26:02.915Z,32.65
2019-02-25T03:27:02.908Z,34.77
2019-02-25T03:28:02.896Z,33.63
2019-02-25T03:29:02.886Z,34.24
2019-02-25T03:30:02.872Z,32.81
2019-02-25T03:31:02.864Z,34.22
2019-02-25T03:32:02.902Z,33.40
2019-02-25T03:33:02.843Z,31.66
2019-02-25T03:34:02.832Z,33.58
2019-02-25T03:35:02.822Z,32.84
2019-02-25T03:36:02.804Z,32.63
2019-02-25T03:37:02.795Z,32.43
2019-02-25T03:38:02.788Z,31.70
2019-02-25T03:39:02.777Z,31.81
2019-02-25T03:40:02.778Z,32.09
2019-02-25T03:41:02.752Z,30.48
2019-02-25T03:42:02.739Z,30.46
2019-02-25T03:43:02.728Z,30.06
2019-02-25T03:44:02.717Z,29.66
2019-02-25T03:45:02.711Z,31.37
2019-02-25T03:46:02.694Z,28.95
2019-02-25T03:47:02.687Z,31.27
2019-02-25T03:48:02.678Z,30.36
2019-02-25T03:49:02.663Z,29.84
2019-02-25T03:50:02.657Z,30.55
2019-02-25T03:51:02.655Z,30.34
2019-02-25T03:52:03.193Z,30.82
2019-02-25T03:53:02.619Z,30.61
2019-02-25T03:54:02.610Z,29.99
2019-02-25T03:55:02.604Z,29.29
2019-02-25T03:56:02.588Z,29.58
2019-02-25T03:57:02.578Z,28.87
2019-02-25T03:58:02.568Z,29.47
2019-02-25T03:59:02.557Z,29.57
2019-02-25T04:00:02.548Z,28.96
2019-02-25T04:01:02.537Z,28.84
2019-02-25T04:02:02.527Z,28.54
2019-02-25T04:03:02.521Z,28.54
2019-02-25T04:04:02.503Z,27.74
2019-02-25T04:05:02.496Z,28.03
2019-02-25T04:06:02.482Z,28.54
2019-02-25T04:07:02.473Z,28.84
2019-02-25T04:08:02.462Z,28.64
2019-02-25T04:09:02.455Z,28.24
2019-02-25T04:10:02.440Z,28.54
2019-02-25T04:11:02.433Z,28.44
2019-02-25T04:12:02.421Z,28.24
2019-02-25T04:13:02.410Z,27.83
2019-02-25T04:14:02.399Z,28.54
2019-02-25T04:15:02.389Z,28.44
2019-02-25T04:16:02.377Z,28.65
2019-02-25T04:17:02.431Z,28.54
2019-02-25T04:18:02.359Z,28.64
2019-02-25T04:19:02.348Z,28.44
2019-02-25T04:20:02.336Z,28.24
2019-02-25T04:21:02.325Z,28.84
2019-02-25T04:22:02.315Z,27.94
2019-02-25T04:23:02.305Z,28.14
2019-02-25T04:24:02.295Z,28.03
2019-02-25T04:25:02.282Z,28.74
2019-02-25T04:26:02.270Z,28.63
2019-02-25T04:27:02.265Z,28.52
2019-02-25T04:28:02.250Z,27.72
2019-02-25T04:29:02.243Z,27.61
2019-02-25T04:30:02.228Z,28.21
2019-02-25T04:31:02.219Z,27.41
2019-02-25T04:32:02.206Z,27.71
2019-02-25T04:33:02.200Z,27.61
2019-02-25T04:34:02.185Z,27.31
2019-02-25T04:35:02.184Z,27.39
2019-02-25T04:36:02.164Z,27.30
2019-02-25T04:37:02.153Z,27.60
2019-02-25T04:38:03.059Z,26.99
2019-02-25T04:39:02.135Z,26.89
2019-02-25T04:40:02.125Z,27.61
2019-02-25T04:41:02.118Z,27.62
2019-02-25T04:42:02.105Z,28.43
2019-02-25T04:43:02.091Z,27.92
2019-02-25T04:44:02.079Z,27.32
2019-02-25T04:45:02.068Z,27.62
2019-02-25T04:46:02.059Z,27.71
2019-02-25T04:47:02.050Z,27.41
2019-02-25T04:48:02.040Z,28.02
2019-02-25T04:49:02.033Z,27.72
2019-02-25T04:50:02.014Z,28.44
2019-02-25T04:51:02.007Z,28.14
2019-02-25T04:52:01.995Z,28.44
2019-02-25T04:53:02.091Z,27.94
2019-02-25T04:54:01.975Z,28.34
2019-02-25T04:55:01.963Z,28.34
2019-02-25T04:56:01.954Z,28.34
2019-02-25T04:57:01.940Z,28.14
2019-02-25T04:58:01.934Z,27.82
2019-02-25T04:59:01.921Z,27.72
2019-02-25T05:00:01.921Z,28.13
2019-02-25T05:01:01.905Z,27.72
2019-02-25T05:02:02.426Z,27.12
2019-02-25T05:03:01.878Z,27.61
2019-02-25T05:04:01.872Z,27.71
2019-02-25T05:05:01.859Z,27.20
2019-02-25T05:06:01.863Z,27.51
2019-02-25T05:07:01.836Z,27.91
2019-02-25T05:08:01.823Z,27.72
2019-02-25T05:09:01.812Z,27.43
2019-02-25T05:10:01.802Z,27.74
2019-02-25T05:11:01.791Z,28.14
2019-02-25T05:12:01.786Z,27.42
2019-02-25T05:13:01.771Z,27.41
2019-02-25T05:14:01.755Z,27.81
2019-02-25T05:15:01.745Z,26.79
2019-02-25T05:16:01.740Z,27.60
2019-02-25T05:17:01.725Z,27.89
2019-02-25T05:18:01.722Z,27.41
2019-02-25T05:19:01.713Z,27.72
2019-02-25T05:20:01.700Z,27.63
2019-02-25T05:21:01.684Z,27.94
2019-02-25T05:22:01.677Z,28.24
2019-02-25T05:23:01.665Z,28.24
2019-02-25T05:24:01.649Z,28.05
2019-02-25T05:25:01.642Z,28.85
2019-02-25T05:26:01.628Z,28.55
2019-02-25T05:27:01.619Z,28.45
2019-02-25T05:28:01.606Z,28.77
2019-02-25T05:29:01.600Z,28.57
2019-02-25T05:30:01.592Z,28.57
2019-02-25T05:31:01.577Z,28.57
2019-02-25T05:32:01.573Z,28.97
2019-02-25T05:33:01.560Z,28.36
2019-02-25T05:34:01.544Z,28.28
2019-02-25T05:35:01.535Z,28.58
2019-02-25T05:36:01.540Z,28.88
2019-02-25T05:37:01.526Z,29.29
2019-02-25T05:38:01.503Z,29.49
2019-02-25T05:39:01.495Z,28.78
2019-02-25T05:40:01.482Z,29.69
2019-02-25T05:41:01.676Z,29.69
2019-02-25T05:42:01.464Z,29.58
2019-02-25T05:43:01.465Z,29.08
2019-02-25T05:44:01.444Z,29.49
2019-02-25T05:45:01.437Z,29.58
2019-02-25T05:46:01.414Z,28.88
2019-02-25T05:47:01.402Z,29.29
2019-02-25T05:48:01.395Z,29.50
2019-02-25T05:49:01.382Z,29.30
2019-02-25T05:50:01.370Z,29.49
2019-02-25T05:51:01.361Z,29.50
2019-02-25T05:52:01.347Z,29.30
2019-02-25T05:53:01.443Z,29.30
2019-02-25T05:54:01.429Z,28.49
2019-02-25T05:55:01.317Z,29.60
2019-02-25T05:56:01.306Z,29.60
2019-02-25T05:57:01.293Z,29.50
2019-02-25T05:58:01.281Z,29.60
2019-02-25T05:59:01.279Z,28.69
2019-02-25T06:00:01.267Z,28.69
2019-02-25T06:01:01.254Z,29.00
2019-02-25T06:02:01.239Z,29.70
2019-02-25T06:03:01.236Z,29.90
2019-02-25T06:04:01.218Z,29.90
2019-02-25T06:05:01.205Z,29.50
2019-02-25T06:06:01.198Z,29.90
2019-02-25T06:07:01.186Z,29.91
2019-02-25T06:08:01.176Z,29.80
2019-02-25T06:09:01.163Z,29.60
2019-02-25T06:10:01.153Z,29.50
2019-02-25T06:11:01.143Z,29.90
2019-02-25T06:12:01.132Z,29.40
2019-02-25T06:13:01.119Z,29.60
2019-02-25T06:14:01.109Z,29.00
2019-02-25T06:15:01.101Z,29.50
2019-02-25T06:16:01.088Z,29.90
2019-02-25T06:17:01.075Z,29.30
2019-02-25T06:18:01.106Z,28.49
2019-02-25T06:19:01.054Z,27.79
2019-02-25T06:20:01.043Z,27.99
2019-02-25T06:21:01.034Z,27.50
2019-02-25T06:22:01.024Z,27.09
2019-02-25T06:23:01.013Z,29.83
2019-02-25T06:24:01.006Z,29.82
2019-02-25T06:25:00.993Z,25.48
2019-02-25T06:26:00.981Z,24.92
2019-02-25T06:27:00.973Z,23.73
2019-02-25T06:28:00.960Z,24.48
2019-02-25T06:29:00.951Z,24.92
2019-02-25T06:30:00.940Z,25.75
2019-02-25T06:31:00.928Z,30.21
2019-02-25T06:32:00.917Z,28.87
2019-02-25T06:33:00.907Z,27.96
2019-02-25T06:34:00.896Z,28.38
2019-02-25T06:35:00.885Z,29.58
2019-02-25T06:36:00.879Z,28.16
2019-02-25T06:37:00.867Z,30.38
2019-02-25T06:38:00.856Z,28.74
2019-02-25T06:39:00.845Z,28.24
2019-02-25T06:40:00.833Z,31.95
2019-02-25T06:41:00.825Z,32.24
2019-02-25T06:42:00.808Z,31.30
2019-02-25T06:43:00.801Z,30.38
2019-02-25T06:44:00.787Z,30.68
2019-02-25T06:45:00.852Z,29.96
2019-02-25T06:46:00.765Z,29.54
2019-02-25T06:47:00.754Z,26.51
2019-02-25T06:48:00.742Z,28.43
2019-02-25T06:49:00.733Z,27.83
2019-02-25T06:50:00.719Z,24.84
2019-02-25T06:51:00.716Z,24.66
2019-02-25T06:52:00.699Z,29.63
2019-02-25T06:53:00.695Z,28.82
2019-02-25T06:54:00.930Z,30.42
2019-02-25T06:55:00.668Z,30.81
2019-02-25T06:56:00.661Z,30.90
2019-02-25T06:57:00.649Z,29.98
2019-02-25T06:58:00.643Z,30.07
2019-02-25T06:59:00.624Z,30.06
2019-02-25T07:00:00.620Z,30.45
2019-02-25T07:01:00.606Z,24.02
2019-02-25T07:02:00.596Z,24.85
2019-02-25T07:03:00.583Z,25.38
2019-02-25T07:04:00.573Z,27.64
2019-02-25T07:05:00.564Z,28.25
2019-02-25T07:06:00.551Z,30.36
2019-02-25T07:07:00.539Z,28.53
2019-02-25T07:08:00.528Z,25.62
2019-02-25T07:09:00.623Z,29.78
2019-02-25T07:10:00.510Z,29.66
2019-02-25T07:11:00.505Z,30.65
2019-02-25T07:12:00.489Z,31.33
2019-02-25T07:13:00.478Z,27.58
2019-02-25T07:14:00.465Z,28.08
2019-02-25T07:15:00.455Z,30.39
2019-02-25T07:16:00.443Z,28.16
2019-02-25T07:17:00.437Z,30.48
2019-02-25T07:18:00.428Z,28.66
2019-02-25T07:19:00.418Z,22.61
2019-02-25T07:20:00.406Z,23.18
2019-02-25T07:21:00.397Z,24.94
2019-02-25T07:22:00.384Z,24.37
2019-02-25T07:23:00.371Z,26.27
2019-02-25T07:24:00.362Z,27.64
2019-02-25T07:25:00.350Z,28.28
2019-02-25T07:26:00.339Z,27.89
2019-02-25T07:27:00.330Z,28.00
2019-02-25T07:28:00.319Z,27.99
2019-02-25T07:29:00.312Z,28.10
2019-02-25T07:30:00.328Z,27.98
2019-02-25T07:31:00.286Z,28.19
2019-02-25T07:32:00.281Z,27.89
2019-02-25T07:33:00.265Z,27.89
2019-02-25T07:34:00.253Z,27.99
2019-02-25T07:35:00.357Z,29.93
2019-02-25T07:36:00.329Z,30.93
2019-02-25T07:37:00.227Z,34.26
2019-02-25T07:38:00.209Z,32.38
2019-02-25T07:39:00.197Z,27.28
2019-02-25T07:40:00.302Z,27.81
2019-02-25T07:41:00.179Z,28.64
2019-02-25T07:42:00.166Z,30.08
2019-02-25T07:43:00.162Z,28.35
2019-02-25T07:44:00.143Z,28.36
2019-02-25T07:45:00.310Z,29.89
2019-02-25T07:46:00.120Z,28.63
2019-02-25T07:47:00.109Z,32.04
2019-02-25T07:48:00.098Z,26.77
2019-02-25T07:49:00.099Z,27.53
2019-02-25T07:50:00.096Z,27.98
2019-02-25T07:51:00.072Z,29.33
2019-02-25T07:52:00.071Z,30.26
2019-02-25T07:53:00.045Z,30.35
2019-02-25T07:54:00.037Z,30.46
2019-02-25T07:55:00.270Z,29.76
2019-02-25T07:56:02.600Z,31.29
2019-02-25T07:56:59.999Z,31.07
2019-02-25T07:57:59.990Z,32.81
2019-02-25T07:58:59.980Z,35.48
2019-02-25T07:59:59.966Z,36.06
2019-02-25T08:00:59.960Z,36.57
2019-02-25T08:01:59.951Z,36.42
2019-02-25T08:02:59.934Z,35.77
2019-02-25T08:03:59.928Z,33.91
2019-02-25T08:04:59.914Z,33.27
2019-02-25T08:05:59.906Z,31.64
2019-02-25T08:06:59.892Z,33.08
2019-02-25T08:07:59.882Z,34.30
2019-02-25T08:08:59.871Z,35.91
2019-02-25T08:09:59.861Z,35.17
2019-02-25T08:10:59.845Z,34.52
2019-02-25T08:11:59.841Z,32.75
2019-02-25T08:12:59.824Z,32.94
2019-02-25T08:13:59.820Z,30.59
2019-02-25T08:14:59.806Z,29.82
2019-02-25T08:15:59.793Z,30.16
2019-02-25T08:16:59.782Z,32.00
2019-02-25T08:17:59.777Z,29.47
2019-02-25T08:18:59.758Z,30.51
2019-02-25T08:19:59.752Z,31.42
2019-02-25T08:20:59.739Z,32.87
2019-02-25T08:21:59.729Z,34.30
2019-02-25T08:22:59.715Z,34.49
2019-02-25T08:23:59.706Z,34.47
2019-02-25T08:24:59.695Z,34.96
2019-02-25T08:25:59.687Z,32.51
2019-02-25T08:26:59.674Z,34.05
2019-02-25T08:27:59.662Z,33.83
2019-02-25T08:28:59.653Z,32.61
2019-02-25T08:29:59.641Z,32.22
2019-02-25T08:30:59.630Z,33.06
2019-02-25T08:31:59.618Z,32.34
2019-02-25T08:32:59.608Z,33.98
2019-02-25T08:33:59.603Z,34.37
2019-02-25T08:34:59.587Z,35.88
2019-02-25T08:35:59.573Z,33.77
2019-02-25T08:37:02.413Z,34.13
2019-02-25T08:37:59.553Z,30.34
2019-02-25T08:38:59.543Z,30.22
2019-02-25T08:39:59.534Z,31.76
2019-02-25T08:40:59.523Z,33.09
2019-02-25T08:41:59.511Z,32.61
2019-02-25T08:42:59.497Z,34.56
2019-02-25T08:43:59.490Z,32.73
2019-02-25T08:44:59.477Z,33.14
2019-02-25T08:45:59.465Z,33.63
2019-02-25T08:46:59.455Z,33.63
2019-02-25T08:47:59.445Z,32.62
2019-02-25T08:48:59.435Z,33.83
2019-02-25T08:49:59.431Z,34.88
2019-02-25T08:50:59.415Z,34.78
2019-02-25T08:51:59.448Z,35.79
2019-02-25T08:52:59.389Z,36.08
2019-02-25T08:53:59.380Z,35.79
2019-02-25T08:54:59.471Z,36.62
2019-02-25T08:55:59.456Z,36.86
2019-02-25T08:56:59.347Z,37.20
2019-02-25T08:57:59.434Z,39.07
2019-02-25T08:58:59.326Z,40.00
2019-02-25T08:59:59.417Z,41.57
2019-02-25T09:00:59.308Z,40.36
2019-02-25T09:01:59.295Z,42.32
2019-02-25T09:02:59.281Z,42.54
2019-02-25T09:03:59.278Z,41.36
2019-02-25T09:04:59.258Z,40.08
2019-02-25T09:05:59.248Z,38.98
2019-02-25T09:06:59.238Z,36.25
2019-02-25T09:07:59.238Z,34.65
2019-02-25T09:08:59.215Z,33.71
2019-02-25T09:09:59.205Z,34.49
2019-02-25T09:10:59.198Z,35.56
2019-02-25T09:11:59.184Z,34.94
2019-02-25T09:12:59.173Z,35.83
2019-02-25T09:13:59.160Z,35.71
2019-02-25T09:14:59.149Z,35.99
2019-02-25T09:15:59.150Z,36.70
2019-02-25T09:16:59.131Z,36.30
2019-02-25T09:17:59.120Z,36.70
2019-02-25T09:18:59.107Z,35.90
2019-02-25T09:19:59.098Z,35.68
2019-02-25T09:20:59.098Z,36.19
2019-02-25T09:21:59.080Z,36.10
2019-02-25T09:22:59.066Z,37.89
2019-02-25T09:23:59.057Z,36.08
2019-02-25T09:24:59.043Z,36.58
2019-02-25T09:25:59.035Z,36.68
2019-02-25T09:26:59.024Z,36.26
2019-02-25T09:27:59.010Z,35.64
2019-02-25T09:28:59.003Z,36.02
2019-02-25T09:29:58.993Z,35.44
2019-02-25T09:30:58.977Z,34.33
2019-02-25T09:31:58.973Z,34.66
2019-02-25T09:32:58.960Z,33.95
2019-02-25T09:33:58.952Z,33.97
2019-02-25T09:34:58.941Z,32.56
2019-02-25T09:35:58.928Z,32.73
2019-02-25T09:36:58.917Z,32.33
2019-02-25T09:37:58.908Z,32.61
2019-02-25T09:38:58.898Z,31.90
2019-02-25T09:39:58.888Z,32.29
2019-02-25T09:40:58.872Z,32.29
2019-02-25T09:41:58.863Z,32.60
2019-02-25T09:42:58.850Z,32.60
2019-02-25T09:43:58.840Z,31.78
2019-02-25T09:44:58.832Z,31.38
2019-02-25T09:45:58.823Z,32.50
2019-02-25T09:46:58.809Z,31.62
2019-02-25T09:47:58.796Z,33.56
2019-02-25T09:48:58.784Z,33.58
2019-02-25T09:49:58.776Z,33.38
2019-02-25T09:50:58.770Z,33.19
2019-02-25T09:51:58.751Z,34.00
2019-02-25T09:52:58.742Z,32.91
2019-02-25T09:53:58.737Z,33.11
2019-02-25T09:54:58.726Z,32.91
2019-02-25T09:55:59.011Z,33.83
2019-02-25T09:56:58.703Z,33.12
2019-02-25T09:57:58.690Z,32.92
2019-02-25T09:58:58.682Z,33.12
2019-02-25T09:59:58.668Z,32.91
2019-02-25T10:00:58.658Z,33.43
2019-02-25T10:01:58.650Z,33.11
2019-02-25T10:02:58.637Z,32.61
2019-02-25T10:03:58.628Z,32.70
2019-02-25T10:04:58.613Z,32.70
2019-02-25T10:05:58.610Z,32.91
2019-02-25T10:07:02.312Z,32.11
2019-02-25T10:07:58.583Z,32.52
2019-02-25T10:08:58.573Z,32.42
2019-02-25T10:09:58.563Z,32.61
2019-02-25T10:10:58.559Z,32.61
2019-02-25T10:11:58.544Z,32.30
2019-02-25T10:12:58.530Z,32.32
2019-02-25T10:13:58.522Z,32.40
2019-02-25T10:14:58.511Z,32.70
2019-02-25T10:15:58.499Z,32.30
2019-02-25T10:16:58.493Z,32.91
2019-02-25T10:17:58.481Z,31.71
2019-02-25T10:18:58.472Z,31.90
2019-02-25T10:19:58.456Z,32.00
2019-02-25T10:20:58.449Z,32.00
2019-02-25T10:21:58.438Z,31.80
2019-02-25T10:22:58.427Z,31.90
2019-02-25T10:23:58.415Z,32.22
2019-02-25T10:24:58.513Z,32.22
2019-02-25T10:25:58.398Z,30.71
2019-02-25T10:26:58.386Z,32.23
2019-02-25T10:27:58.373Z,32.22
2019-02-25T10:28:58.368Z,31.92
2019-02-25T10:29:58.356Z,32.74
2019-02-25T10:30:58.352Z,32.64
2019-02-25T10:32:00.021Z,31.73
2019-02-25T10:32:58.324Z,31.92
2019-02-25T10:33:58.312Z,31.53
2019-02-25T10:34:58.303Z,31.93
2019-02-25T10:35:58.292Z,31.21
2019-02-25T10:36:58.278Z,32.02
2019-02-25T10:37:58.274Z,32.42
2019-02-25T10:38:58.262Z,32.12
2019-02-25T10:39:58.247Z,30.91
2019-02-25T10:40:59.394Z,31.62
2019-02-25T10:41:59.581Z,31.21
2019-02-25T10:42:58.215Z,31.83
2019-02-25T10:44:00.133Z,31.62
2019-02-25T10:44:58.201Z,32.02
2019-02-25T10:45:58.186Z,31.92
2019-02-25T10:46:58.175Z,31.82
2019-02-25T10:47:58.908Z,32.02
2019-02-25T10:48:59.187Z,31.82
2019-02-25T10:49:58.710Z,31.62
2019-02-25T10:50:58.130Z,31.82
2019-02-25T10:51:58.123Z,31.31
2019-02-25T10:53:03.446Z,31.73
2019-02-25T10:53:58.104Z,31.21
2019-02-25T10:54:58.302Z,32.12
2019-02-25T10:55:58.080Z,31.92
2019-02-25T10:56:58.173Z,31.31
2019-02-25T10:57:59.759Z,31.21
2019-02-25T10:58:59.763Z,31.53
2019-02-25T10:59:58.038Z,31.71
2019-02-25T11:00:58.031Z,31.82
2019-02-25T11:01:58.021Z,31.53
2019-02-25T11:02:58.319Z,31.32
2019-02-25T11:03:57.998Z,31.23
2019-02-25T11:04:57.992Z,32.13
2019-02-25T11:05:58.579Z,31.23
2019-02-25T11:06:58.908Z,31.63
2019-02-25T11:07:57.962Z,31.63
2019-02-25T11:08:57.945Z,31.23
2019-02-25T11:09:57.936Z,31.63
2019-02-25T11:10:57.924Z,31.53
2019-02-25T11:11:59.973Z,31.32
2019-02-25T11:12:59.744Z,31.32
2019-02-25T11:13:58.851Z,31.53
2019-02-25T11:14:57.901Z,31.63
2019-02-25T11:15:57.887Z,28.30
2019-02-25T11:16:57.892Z,24.20
2019-02-25T11:17:57.856Z,26.55
2019-02-25T11:18:58.673Z,26.77
2019-02-25T11:19:58.690Z,26.69
2019-02-25T11:20:58.992Z,29.42
2019-02-25T11:21:57.829Z,32.46
2019-02-25T11:22:57.807Z,29.61
2019-02-25T11:23:59.085Z,32.53
2019-02-25T11:24:57.892Z,32.92
2019-02-25T11:25:58.299Z,31.29
2019-02-25T11:26:59.056Z,32.28
2019-02-25T11:27:57.763Z,32.38
2019-02-25T11:28:57.743Z,31.78
2019-02-25T11:29:57.735Z,29.96
2019-02-25T11:30:57.728Z,32.28
2019-02-25T11:31:57.717Z,31.57
2019-02-25T11:32:59.593Z,32.28
2019-02-25T11:33:58.600Z,31.87
2019-02-25T11:34:57.684Z,32.48
2019-02-25T11:35:57.664Z,31.96
2019-02-25T11:37:24.498Z,30.65
2019-02-25T11:38:23.758Z,28.85
2019-02-25T11:39:22.121Z,31.27
2019-02-25T11:40:22.121Z,29.66
2019-02-25T11:41:22.088Z,30.38
2019-02-25T11:42:22.075Z,30.36
2019-02-25T11:43:22.069Z,27.55
2019-02-25T11:44:23.431Z,31.54
2019-02-25T11:45:22.047Z,34.29
2019-02-25T11:46:22.032Z,32.89
2019-02-25T11:47:22.023Z,33.80
2019-02-25T11:48:22.706Z,33.62
2019-02-25T11:49:22.000Z,34.34
2019-02-25T11:50:21.993Z,35.08
2019-02-25T11:51:21.978Z,35.11
2019-02-25T11:52:21.969Z,34.34
2019-02-25T11:53:21.960Z,36.37
2019-02-25T11:54:21.952Z,36.13
2019-02-25T11:55:22.069Z,35.11
2019-02-25T11:56:21.929Z,35.02
2019-02-25T11:57:22.217Z,36.32
2019-02-25T11:58:21.905Z,35.37
2019-02-25T11:59:21.897Z,33.52
2019-02-25T12:00:21.887Z,34.44
2019-02-25T12:01:21.877Z,33.53
2019-02-25T12:02:25.593Z,34.34
2019-02-25T12:03:21.853Z,35.05
2019-02-25T12:04:21.842Z,34.63
2019-02-25T12:05:21.830Z,34.21
2019-02-25T12:06:21.819Z,34.02
2019-02-25T12:07:21.808Z,33.85
2019-02-25T12:08:21.800Z,34.60
2019-02-25T12:09:21.788Z,34.80
2019-02-25T12:10:21.778Z,34.78
2019-02-25T12:11:21.767Z,34.41
2019-02-25T12:12:21.758Z,35.88
2019-02-25T12:13:21.746Z,35.86
2019-02-25T12:14:21.733Z,35.26
2019-02-25T12:15:21.726Z,36.23
2019-02-25T12:16:21.840Z,35.51
2019-02-25T12:17:21.704Z,36.10
2019-02-25T12:18:21.693Z,35.68
2019-02-25T12:19:21.682Z,33.03
2019-02-25T12:20:21.681Z,34.63
2019-02-25T12:21:21.660Z,34.82
2019-02-25T12:22:21.650Z,33.50
2019-02-25T12:23:21.639Z,35.04
2019-02-25T12:24:21.626Z,34.82
2019-02-25T12:25:21.616Z,34.60
2019-02-25T12:26:21.608Z,34.70
2019-02-25T12:27:21.596Z,33.48
2019-02-25T12:28:21.585Z,34.29
2019-02-25T12:29:21.574Z,34.90
2019-02-25T12:30:21.564Z,33.97
2019-02-25T12:31:21.552Z,33.67
2019-02-25T12:32:21.542Z,32.87
2019-02-25T12:33:21.531Z,33.58
2019-02-25T12:34:21.518Z,32.69
2019-02-25T12:35:21.510Z,33.62
2019-02-25T12:36:21.500Z,32.70
2019-02-25T12:37:21.493Z,34.93
2019-02-25T12:38:21.479Z,35.04
2019-02-25T12:39:21.465Z,34.71
2019-02-25T12:40:21.555Z,33.60
2019-02-25T12:41:21.444Z,34.61
2019-02-25T12:42:21.430Z,33.91
2019-02-25T12:43:21.420Z,34.71
2019-02-25T12:44:21.410Z,34.53
2019-02-25T12:45:21.401Z,34.71
2019-02-25T12:46:21.388Z,34.82
2019-02-25T12:47:21.376Z,34.13
2019-02-25T12:48:22.787Z,34.73
2019-02-25T12:49:21.356Z,34.83
2019-02-25T12:50:21.347Z,35.04
2019-02-25T12:51:21.336Z,34.95
2019-02-25T12:52:21.324Z,34.75
2019-02-25T12:53:21.310Z,35.14
2019-02-25T12:54:21.306Z,34.83
2019-02-25T12:55:21.289Z,34.83
2019-02-25T12:56:21.280Z,34.42
2019-02-25T12:57:21.370Z,34.53
2019-02-25T12:58:21.359Z,34.75
2019-02-25T12:59:21.244Z,34.24
2019-02-25T13:00:21.240Z,35.15
2019-02-25T13:01:21.225Z,34.55
2019-02-25T13:02:21.217Z,34.55
2019-02-25T13:03:21.205Z,34.36
2019-02-25T13:04:21.193Z,35.27
2019-02-25T13:05:21.179Z,34.77
2019-02-25T13:06:21.173Z,35.68
2019-02-25T13:07:21.163Z,34.88
2019-02-25T13:08:21.147Z,35.47
2019-02-25T13:09:21.236Z,35.78
2019-02-25T13:10:21.128Z,35.66
2019-02-25T13:11:21.147Z,35.35
2019-02-25T13:12:21.106Z,34.24
2019-02-25T13:13:21.099Z,34.24